createdAt,value
2018-12-14T00:01:07.621Z,12.40
2018-12-14T00:03:40.291Z,9.37
2018-12-14T00:06:13.443Z,12.00
2018-12-14T00:08:44.144Z,10.57
2018-12-14T00:11:14.852Z,10.47
2018-12-14T00:13:45.632Z,8.60
2018-12-14T00:16:16.325Z,10.67
2018-12-14T00:18:47.533Z,9.87
2018-12-14T00:21:18.649Z,8.83
2018-12-14T00:23:49.265Z,22.37
2018-12-14T00:26:20.013Z,13.23
2018-12-14T00:28:50.706Z,26.93
2018-12-14T00:31:22.624Z,20.13
2018-12-14T00:33:53.231Z,21.27
2018-12-14T00:36:23.961Z,19.23
2018-12-14T00:38:54.783Z,11.07
2018-12-14T00:41:25.460Z,10.37
2018-12-14T00:43:56.087Z,11.63
2018-12-14T00:46:27.109Z,9.47
2018-12-14T00:48:57.759Z,8.73
2018-12-14T00:51:28.467Z,11.73
2018-12-14T00:54:00.174Z,9.53
2018-12-14T00:56:30.803Z,8.03
2018-12-14T00:59:02.248Z,6.80
2018-12-14T01:01:32.921Z,10.67
2018-12-14T01:04:03.627Z,12.57
2018-12-14T01:06:34.893Z,10.90
2018-12-14T01:09:07.049Z,11.97
2018-12-14T01:11:39.691Z,8.40
2018-12-14T01:14:10.300Z,6.50
2018-12-14T01:16:42.176Z,8.57
2018-12-14T01:19:12.885Z,10.43
2018-12-14T01:21:43.635Z,9.47
2018-12-14T01:24:14.250Z,11.57
2018-12-14T01:26:45.010Z,11.80
2018-12-14T01:29:15.611Z,15.17
2018-12-14T01:31:46.342Z,22.70
2018-12-14T01:34:16.974Z,20.73
2018-12-14T01:36:47.646Z,18.53
2018-12-14T01:39:18.373Z,24.40
2018-12-14T01:41:49.067Z,36.67
2018-12-14T01:44:19.638Z,31.10
2018-12-14T01:46:50.440Z,22.03
2018-12-14T01:49:21.035Z,18.80
2018-12-14T01:51:51.648Z,17.97
2018-12-14T01:54:22.310Z,12.03
2018-12-14T01:56:52.926Z,10.10
2018-12-14T01:59:23.634Z,11.50
2018-12-14T02:01:54.205Z,9.63
2018-12-14T02:04:24.963Z,8.80
2018-12-14T02:06:55.805Z,8.27
2018-12-14T02:09:27.213Z,11.60
2018-12-14T02:11:58.882Z,9.43
2018-12-14T02:14:30.102Z,13.23
2018-12-14T02:17:00.862Z,12.50
2018-12-14T02:19:31.589Z,36.93
2018-12-14T02:22:02.269Z,42.27
2018-12-14T02:24:33.019Z,46.10
2018-12-14T02:27:03.797Z,83.27
2018-12-14T02:29:34.452Z,42.00
2018-12-14T02:32:05.448Z,58.50
2018-12-14T02:34:37.081Z,72.70
2018-12-14T02:37:07.855Z,48.27
2018-12-14T02:39:39.620Z,41.80
2018-12-14T02:42:19.138Z,37.20
2018-12-14T02:44:43.936Z,34.63
2018-12-14T02:47:14.810Z,28.50
2018-12-14T02:49:45.496Z,22.50
2018-12-14T02:52:16.210Z,16.63
2018-12-14T02:54:46.946Z,15.73
2018-12-14T02:57:17.594Z,17.93
2018-12-14T02:59:48.842Z,15.37
2018-12-14T03:02:19.889Z,11.67
2018-12-14T03:04:50.448Z,12.70
2018-12-14T03:07:21.064Z,15.57
2018-12-14T03:09:51.784Z,19.30
2018-12-14T03:12:26.645Z,20.30
2018-12-14T03:14:56.500Z,18.40
2018-12-14T03:17:27.858Z,14.87
2018-12-14T03:19:58.879Z,25.43
2018-12-14T03:22:29.748Z,24.33
2018-12-14T03:25:00.340Z,19.47
2018-12-14T03:27:31.093Z,20.30
2018-12-14T03:30:01.768Z,25.23
2018-12-14T03:32:32.537Z,27.37
2018-12-14T03:35:03.590Z,24.53
2018-12-14T03:37:34.929Z,24.87
2018-12-14T03:40:06.104Z,22.97
2018-12-14T03:42:37.587Z,25.03
2018-12-14T03:45:09.441Z,21.57
2018-12-14T03:47:40.346Z,23.10
2018-12-14T03:50:10.992Z,20.70
2018-12-14T03:52:41.660Z,22.13
2018-12-14T03:55:12.380Z,17.90
2018-12-14T03:57:42.975Z,24.27
2018-12-14T04:00:14.018Z,23.87
2018-12-14T04:02:44.726Z,26.37
2018-12-14T04:05:15.457Z,29.37
2018-12-14T04:07:47.899Z,38.20
2018-12-14T04:10:18.494Z,37.57
2018-12-14T04:12:49.169Z,34.97
2018-12-14T04:15:19.940Z,106.93
2018-12-14T04:17:50.573Z,65.43
2018-12-14T04:20:21.337Z,92.73
2018-12-14T04:22:52.016Z,87.30
2018-12-14T04:25:22.655Z,63.60
2018-12-14T04:27:53.443Z,35.70
2018-12-14T04:30:24.452Z,38.77
2018-12-14T04:32:56.879Z,37.80
2018-12-14T04:35:27.718Z,34.17
2018-12-14T04:37:58.356Z,33.37
2018-12-14T04:40:28.987Z,20.03
2018-12-14T04:42:59.744Z,17.17
2018-12-14T04:45:30.706Z,14.13
2018-12-14T04:48:01.597Z,15.83
2018-12-14T04:50:32.249Z,16.93
2018-12-14T04:53:03.012Z,17.17
2018-12-14T04:55:33.722Z,14.53
2018-12-14T04:58:04.287Z,14.27
2018-12-14T05:00:35.008Z,12.93
2018-12-14T05:03:05.654Z,11.43
2018-12-14T05:05:36.321Z,11.40
2018-12-14T05:08:07.304Z,11.27
2018-12-14T05:10:37.974Z,27.20
2018-12-14T05:13:08.652Z,48.73
2018-12-14T05:15:39.330Z,45.23
2018-12-14T05:18:10.087Z,45.27
2018-12-14T05:20:40.905Z,44.53
2018-12-14T05:23:11.576Z,46.73
2018-12-14T05:25:42.304Z,44.23
2018-12-14T05:28:13.097Z,36.60
2018-12-14T05:30:43.819Z,37.10
2018-12-14T05:33:14.589Z,35.10
2018-12-14T05:35:45.338Z,37.47
2018-12-14T05:38:16.174Z,34.17
2018-12-14T05:40:46.903Z,33.13
2018-12-14T05:43:17.660Z,32.07
2018-12-14T05:45:48.287Z,39.53
2018-12-14T05:48:19.050Z,39.23
2018-12-14T05:50:49.767Z,43.03
2018-12-14T05:53:20.401Z,35.37
2018-12-14T05:55:51.128Z,35.70
2018-12-14T05:58:21.904Z,33.47
2018-12-14T06:00:52.544Z,37.43
2018-12-14T06:03:23.311Z,34.30
2018-12-14T06:05:54.061Z,30.03
2018-12-14T06:08:24.916Z,34.07
2018-12-14T06:10:55.622Z,34.67
2018-12-14T06:13:26.365Z,43.10
2018-12-14T06:15:57.031Z,40.10
2018-12-14T06:18:27.780Z,42.20
2018-12-14T06:20:58.458Z,48.03
2018-12-14T06:23:29.194Z,48.87
2018-12-14T06:25:59.905Z,48.63
2018-12-14T06:28:31.529Z,51.60
2018-12-14T06:31:02.314Z,41.97
2018-12-14T06:33:32.929Z,39.03
2018-12-14T06:36:03.666Z,32.47
2018-12-14T06:38:34.288Z,27.73
2018-12-14T06:41:05.034Z,23.03
2018-12-14T06:43:35.743Z,26.83
2018-12-14T06:46:06.437Z,25.87
2018-12-14T06:48:37.411Z,22.03
2018-12-14T06:51:08.372Z,23.67
2018-12-14T06:53:39.095Z,24.83
2018-12-14T06:56:09.754Z,53.83
2018-12-14T06:58:40.434Z,67.83
2018-12-14T07:01:11.066Z,30.07
2018-12-14T07:03:41.751Z,27.80
2018-12-14T07:06:12.447Z,29.40
2018-12-14T07:08:43.454Z,27.43
2018-12-14T07:11:14.205Z,29.80
2018-12-14T07:13:44.913Z,18.57
2018-12-14T07:16:15.582Z,22.13
2018-12-14T07:18:46.312Z,18.20
2018-12-14T07:21:17.107Z,16.87
2018-12-14T07:23:47.797Z,14.60
2018-12-14T07:26:18.458Z,16.33
2018-12-14T07:28:50.270Z,15.20
2018-12-14T07:31:20.972Z,18.07
2018-12-14T07:33:51.632Z,17.50
2018-12-14T07:36:22.409Z,18.70
2018-12-14T07:38:53.175Z,25.37
2018-12-14T07:41:23.896Z,15.83
2018-12-14T07:43:54.595Z,23.27
2018-12-14T07:46:25.315Z,20.90
2018-12-14T07:48:56.174Z,12.70
2018-12-14T07:51:26.740Z,11.27
2018-12-14T07:53:57.542Z,14.03
2018-12-14T07:56:28.265Z,13.10
2018-12-14T07:58:59.271Z,18.50
2018-12-14T08:01:29.934Z,14.27
2018-12-14T08:04:00.581Z,7.70
2018-12-14T08:06:31.592Z,10.93
2018-12-14T08:09:04.752Z,12.17
2018-12-14T08:11:37.041Z,8.23
2018-12-14T08:17:04.465Z,15.03
2018-12-14T08:19:35.365Z,12.03
2018-12-14T08:22:06.299Z,11.93
2018-12-14T08:24:37.209Z,9.63
2018-12-14T08:27:09.198Z,16.63
2018-12-14T08:29:40.453Z,12.90
2018-12-14T08:32:11.574Z,9.07
2018-12-14T08:34:42.738Z,11.03
2018-12-14T08:37:13.716Z,10.10
2018-12-14T08:39:45.239Z,8.73
2018-12-14T08:42:16.738Z,12.37
2018-12-14T08:44:47.884Z,12.00
2018-12-14T08:47:19.099Z,12.37
2018-12-14T08:49:53.567Z,13.40
2018-12-14T08:52:25.122Z,12.37
2018-12-14T08:54:56.799Z,7.60
2018-12-14T08:57:28.338Z,9.80
2018-12-14T09:00:00.232Z,9.70
2018-12-14T09:02:31.879Z,11.30
2018-12-14T09:05:03.439Z,11.23
2018-12-14T09:07:34.905Z,9.33
2018-12-14T09:10:09.049Z,10.83
2018-12-14T09:12:40.263Z,10.40
2018-12-14T09:15:11.495Z,9.67
2018-12-14T09:17:42.514Z,9.90
2018-12-14T09:20:15.010Z,9.20
2018-12-14T09:22:48.239Z,12.03
2018-12-14T09:25:19.800Z,9.20
2018-12-14T09:27:50.907Z,7.87
2018-12-14T09:30:25.304Z,11.53
2018-12-14T09:32:59.069Z,10.40
2018-12-14T09:35:31.785Z,10.87
2018-12-14T09:38:03.334Z,16.47
2018-12-14T09:40:38.761Z,12.83
2018-12-14T09:43:10.849Z,9.20
2018-12-14T09:45:44.089Z,10.40
2018-12-14T09:48:17.739Z,11.57
2018-12-14T09:50:49.570Z,8.43
2018-12-14T09:53:21.520Z,8.90
2018-12-14T09:55:54.729Z,9.73
2018-12-14T09:58:26.379Z,10.27
2018-12-14T10:00:58.519Z,6.97
2018-12-14T10:03:32.698Z,11.00
2018-12-14T10:06:03.768Z,8.27
2018-12-14T10:08:35.236Z,13.10
2018-12-14T10:11:06.919Z,12.93
2018-12-14T10:13:46.570Z,9.87
2018-12-14T10:16:23.288Z,9.83
2018-12-14T10:18:54.950Z,11.70
2018-12-14T10:21:26.919Z,11.87
2018-12-14T10:23:58.560Z,11.10
2018-12-14T10:26:32.770Z,15.53
2018-12-14T10:29:04.779Z,13.93
2018-12-14T10:31:37.359Z,10.40
2018-12-14T10:34:08.791Z,10.93
2018-12-14T10:36:40.309Z,16.27
2018-12-14T10:39:13.499Z,18.53
2018-12-14T10:41:45.108Z,17.23
2018-12-14T10:44:25.240Z,13.30
2018-12-14T10:46:57.229Z,15.67
2018-12-14T10:49:30.799Z,9.47
2018-12-14T10:52:02.999Z,12.10
2018-12-14T10:54:34.641Z,16.63
2018-12-14T10:57:06.138Z,9.83
2018-12-14T10:59:37.418Z,11.80
2018-12-14T11:02:10.179Z,11.07
2018-12-14T11:04:41.692Z,12.30
2018-12-14T11:07:14.618Z,9.57
2018-12-14T11:09:47.887Z,10.83
2018-12-14T11:12:19.808Z,12.23
2018-12-14T11:14:51.466Z,11.87
2018-12-14T11:17:24.239Z,72.87
2018-12-14T11:19:57.387Z,44.37
2018-12-14T11:22:30.193Z,75.07
2018-12-14T11:25:02.948Z,237.57
2018-12-14T11:27:34.438Z,254.93
2018-12-14T11:30:06.149Z,118.67
2018-12-14T11:32:37.838Z,60.83
2018-12-14T11:35:10.009Z,18.20
2018-12-14T11:37:42.637Z,13.43
2018-12-14T11:40:15.537Z,23.03
2018-12-14T11:42:47.165Z,20.33
2018-12-14T11:45:19.518Z,14.27
2018-12-14T11:47:51.911Z,14.43
2018-12-14T11:50:26.059Z,12.70
2018-12-14T11:52:57.893Z,101.23
2018-12-14T11:55:30.531Z,317.80
2018-12-14T11:58:03.628Z,215.00
2018-12-14T12:00:35.834Z,79.60
2018-12-14T12:03:07.235Z,66.23
2018-12-14T12:05:40.464Z,86.63
2018-12-14T12:08:14.068Z,51.43
2018-12-14T12:10:48.275Z,46.20
2018-12-14T12:13:19.652Z,28.40
2018-12-14T12:15:51.176Z,37.13
2018-12-14T12:18:22.969Z,32.47
2018-12-14T12:20:54.488Z,35.40
2018-12-14T12:23:25.627Z,21.60
2018-12-14T12:25:57.006Z,30.63
2018-12-14T12:28:28.708Z,31.97
2018-12-14T12:30:59.757Z,28.00
2018-12-14T12:33:30.848Z,31.77
2018-12-14T12:36:01.806Z,28.13
2018-12-14T12:38:38.128Z,32.80
2018-12-14T12:41:07.669Z,28.83
2018-12-14T12:43:38.961Z,40.73
2018-12-14T12:46:10.558Z,28.20
2018-12-14T12:48:42.087Z,30.53
2018-12-14T12:51:13.164Z,17.47
2018-12-14T12:53:44.615Z,12.87
2018-12-14T12:56:16.086Z,33.07
2018-12-14T12:58:47.528Z,20.30
2018-12-14T13:01:19.827Z,15.63
2018-12-14T13:03:52.038Z,18.30
2018-12-14T13:06:23.290Z,18.17
2018-12-14T13:08:54.857Z,16.00
2018-12-14T13:11:25.909Z,16.37
2018-12-14T13:13:57.182Z,14.60
2018-12-14T13:16:28.440Z,14.97
2018-12-14T13:18:59.475Z,18.93
2018-12-14T13:21:32.300Z,17.90
2018-12-14T13:24:03.527Z,18.13
2018-12-14T13:26:34.968Z,23.00
2018-12-14T13:29:07.407Z,20.57
2018-12-14T13:31:39.718Z,19.63
2018-12-14T13:34:12.617Z,46.43
2018-12-14T13:36:46.031Z,79.17
2018-12-14T13:39:18.202Z,100.40
2018-12-14T13:41:49.807Z,171.03
2018-12-14T13:44:21.855Z,70.43
2018-12-14T13:46:53.870Z,142.10
2018-12-14T13:49:25.627Z,37.70
2018-12-14T13:51:59.669Z,28.20
2018-12-14T13:54:31.609Z,59.13
2018-12-14T13:57:03.177Z,51.97
2018-12-14T13:59:34.928Z,42.43
2018-12-14T14:02:06.438Z,23.17
2018-12-14T14:04:39.458Z,21.80
2018-12-14T14:07:11.137Z,27.63
2018-12-14T14:09:43.567Z,23.47
2018-12-14T14:12:19.787Z,25.03
2018-12-14T14:14:53.092Z,22.80
2018-12-14T14:17:24.809Z,20.40
2018-12-14T14:19:55.881Z,23.30
2018-12-14T14:22:27.010Z,23.90
2018-12-14T14:24:58.377Z,27.80
2018-12-14T14:27:29.444Z,24.07
2018-12-14T14:30:00.468Z,26.67
2018-12-14T14:32:31.544Z,25.57
2018-12-14T14:35:05.818Z,26.77
2018-12-14T14:37:39.038Z,22.57
2018-12-14T14:40:10.627Z,26.20
2018-12-14T14:42:42.737Z,37.23
2018-12-14T14:45:14.307Z,33.13
2018-12-14T14:47:46.027Z,40.30
2018-12-14T14:50:18.099Z,56.87
2018-12-14T14:52:49.837Z,42.97
2018-12-14T14:55:23.227Z,45.77
2018-12-14T14:57:56.248Z,42.13
2018-12-14T15:00:32.069Z,37.30
2018-12-14T15:03:04.207Z,97.67
2018-12-14T15:05:36.409Z,55.93
2018-12-14T15:08:08.188Z,46.30
2018-12-14T15:10:43.218Z,32.30
2018-12-14T15:13:14.949Z,34.80
2018-12-14T15:15:47.708Z,39.20
2018-12-14T15:18:19.486Z,35.37
2018-12-14T15:20:51.259Z,29.10
2018-12-14T15:23:23.208Z,32.77
2018-12-14T15:25:55.047Z,37.67
2018-12-14T15:28:27.058Z,33.77
2018-12-14T15:30:58.698Z,38.03
2018-12-14T15:33:30.418Z,31.30
2018-12-14T15:36:02.031Z,38.13
2018-12-14T15:38:33.697Z,42.37
2018-12-14T15:41:05.318Z,39.30
2018-12-14T15:43:36.910Z,42.53
2018-12-14T15:46:08.419Z,48.87
2018-12-14T15:48:39.967Z,42.47
2018-12-14T15:51:11.508Z,52.40
2018-12-14T15:53:42.958Z,36.67
2018-12-14T15:56:14.479Z,31.47
2018-12-14T15:58:46.171Z,31.03
2018-12-14T16:01:17.757Z,36.93
2018-12-14T16:03:50.257Z,36.40
2018-12-14T16:06:21.639Z,30.77
2018-12-14T16:08:53.567Z,30.43
2018-12-14T16:11:30.169Z,46.93
2018-12-14T16:14:02.778Z,40.37
2018-12-14T16:16:34.359Z,33.83
2018-12-14T16:19:05.981Z,31.90
2018-12-14T16:21:37.594Z,27.07
2018-12-14T16:24:10.005Z,30.23
2018-12-14T16:26:41.948Z,38.13
2018-12-14T16:29:13.610Z,26.63
2018-12-14T16:31:45.198Z,33.67
2018-12-14T16:34:17.378Z,25.63
2018-12-14T16:36:49.027Z,36.77
2018-12-14T16:39:20.689Z,35.13
2018-12-14T16:41:52.418Z,26.37
2018-12-14T16:44:23.939Z,25.37
2018-12-14T16:46:55.499Z,30.07
2018-12-14T16:49:26.969Z,30.70
2018-12-14T16:51:58.749Z,28.70
2018-12-14T16:54:30.420Z,29.87
2018-12-14T16:57:02.220Z,29.03
2018-12-14T16:59:33.660Z,31.23
2018-12-14T17:02:05.388Z,25.40
2018-12-14T17:04:37.037Z,31.53
2018-12-14T17:07:08.749Z,37.37
2018-12-14T17:09:40.318Z,30.53
2018-12-14T17:12:12.890Z,33.67
2018-12-14T17:14:44.529Z,36.63
2018-12-14T17:17:17.138Z,31.53
2018-12-14T17:19:48.749Z,33.53
2018-12-14T17:22:20.489Z,34.17
2018-12-14T17:24:52.130Z,53.60
2018-12-14T17:27:24.398Z,48.23
2018-12-14T17:29:55.899Z,30.33
2018-12-14T17:32:27.409Z,31.30
2018-12-14T17:35:00.149Z,35.63
2018-12-14T17:37:31.799Z,35.67
2018-12-14T17:40:05.768Z,38.03
2018-12-14T17:42:39.399Z,35.33
2018-12-14T17:45:11.059Z,37.37
2018-12-14T17:47:42.680Z,34.90
2018-12-14T17:50:14.569Z,34.00
2018-12-14T17:52:46.210Z,41.70
2018-12-14T17:55:18.011Z,35.77
2018-12-14T17:57:50.944Z,33.40
2018-12-14T18:00:23.649Z,39.13
2018-12-14T18:02:55.293Z,40.00
2018-12-14T18:05:27.050Z,31.70
2018-12-14T18:07:58.550Z,32.00
2018-12-14T18:10:31.558Z,25.23
2018-12-14T18:13:04.620Z,36.10
2018-12-14T18:15:36.610Z,36.30
2018-12-14T18:18:08.288Z,30.13
2018-12-14T18:20:41.778Z,24.40
2018-12-14T18:23:13.429Z,34.90
2018-12-14T18:25:47.120Z,32.30
2018-12-14T18:28:18.819Z,33.17
2018-12-14T18:30:50.689Z,36.93
2018-12-14T18:33:22.260Z,32.80
2018-12-14T18:35:53.930Z,32.30
2018-12-14T18:38:25.691Z,40.80
2018-12-14T18:40:58.061Z,29.40
2018-12-14T18:43:29.768Z,44.03
2018-12-14T18:46:01.379Z,78.50
2018-12-14T18:48:32.978Z,42.50
2018-12-14T18:51:04.449Z,39.50
2018-12-14T18:53:36.090Z,46.97
2018-12-14T18:56:07.749Z,57.67
2018-12-14T18:58:40.708Z,44.63
2018-12-14T19:01:12.870Z,30.83
2018-12-14T19:03:44.850Z,28.97
2018-12-14T19:06:16.829Z,28.60
2018-12-14T19:08:48.870Z,26.57
2018-12-14T19:11:21.610Z,29.97
2018-12-14T19:13:54.109Z,32.60
2018-12-14T19:16:26.259Z,285.00
2018-12-14T19:18:58.620Z,519.93
2018-12-14T19:21:30.742Z,712.50
2018-12-14T19:24:02.570Z,796.53
2018-12-14T19:26:34.430Z,656.73
2018-12-14T19:29:07.590Z,479.73
2018-12-14T19:31:39.559Z,210.77
2018-12-14T19:34:11.570Z,58.97
2018-12-14T19:36:43.400Z,62.70
2018-12-14T19:39:15.699Z,60.97
2018-12-14T19:41:47.939Z,127.70
2018-12-14T19:44:19.871Z,562.90
2018-12-14T19:46:51.749Z,384.00
2018-12-14T19:49:23.729Z,350.47
2018-12-14T19:51:56.111Z,44.00
2018-12-14T19:54:28.139Z,63.57
2018-12-14T19:57:00.298Z,58.77
2018-12-14T19:59:32.400Z,43.97
2018-12-14T20:02:04.399Z,55.77
2018-12-14T20:04:36.360Z,49.10
2018-12-14T20:07:08.289Z,236.43
2018-12-14T20:09:40.681Z,73.57
2018-12-14T20:12:12.540Z,39.53
2018-12-14T20:14:44.620Z,47.33
2018-12-14T20:17:17.500Z,49.13
2018-12-14T20:19:51.009Z,39.20
2018-12-14T20:22:22.790Z,45.57
2018-12-14T20:24:54.572Z,36.87
2018-12-14T20:27:27.192Z,42.10
2018-12-14T20:29:58.870Z,39.73
2018-12-14T20:32:30.648Z,56.10
2018-12-14T20:35:02.738Z,33.73
2018-12-14T20:37:34.489Z,35.53
2018-12-14T20:40:06.912Z,31.63
2018-12-14T20:42:38.559Z,29.47
2018-12-14T20:45:10.838Z,25.10
2018-12-14T20:47:43.450Z,25.57
2018-12-14T20:50:15.479Z,28.00
2018-12-14T20:52:47.419Z,24.33
2018-12-14T20:55:20.841Z,24.80
2018-12-14T20:57:54.485Z,21.07
2018-12-14T21:00:27.719Z,21.07
2018-12-14T21:03:00.189Z,20.77
2018-12-14T21:05:33.328Z,23.60
2018-12-14T21:08:05.759Z,22.27
2018-12-14T21:10:38.828Z,23.10
2018-12-14T21:13:11.329Z,26.77
2018-12-14T21:15:44.130Z,17.87
2018-12-14T21:18:16.910Z,22.70
2018-12-14T21:20:50.100Z,17.97
2018-12-14T21:23:22.399Z,20.27
2018-12-14T21:25:54.119Z,14.60
2018-12-14T21:28:25.988Z,15.70
2018-12-14T21:30:57.689Z,19.50
2018-12-14T21:33:29.328Z,17.57
2018-12-14T21:36:00.910Z,18.60
2018-12-14T21:38:32.498Z,30.00
2018-12-14T21:41:04.400Z,27.10
2018-12-14T21:43:35.970Z,29.50
2018-12-14T21:46:07.659Z,26.10
2018-12-14T21:48:39.569Z,29.07
2018-12-14T21:51:11.320Z,29.07
2018-12-14T21:53:42.939Z,167.83
2018-12-14T21:56:14.660Z,422.73
2018-12-14T21:58:46.169Z,396.47
2018-12-14T22:01:19.798Z,570.63
2018-12-14T22:03:51.469Z,701.80
2018-12-14T22:06:23.159Z,909.13
2018-12-14T22:08:54.749Z,708.37
2018-12-14T22:11:27.120Z,834.37
2018-12-14T22:13:58.789Z,723.53
2018-12-14T22:16:30.598Z,373.87
2018-12-14T22:19:10.228Z,56.33
2018-12-14T22:21:44.986Z,34.63
2018-12-14T22:24:15.710Z,29.07
2018-12-14T22:26:46.956Z,28.50
2018-12-14T22:29:17.669Z,26.47
2018-12-14T22:31:48.181Z,52.63
2018-12-14T22:34:18.776Z,226.00
2018-12-14T22:36:49.407Z,212.63
2018-12-14T22:39:20.717Z,108.50
2018-12-14T22:41:51.559Z,391.43
2018-12-14T22:44:22.154Z,130.83
2018-12-14T22:46:52.831Z,204.73
2018-12-14T22:49:23.519Z,166.13
2018-12-14T22:51:54.195Z,733.00
2018-12-14T22:54:24.767Z,143.93
2018-12-14T22:56:55.435Z,408.67
2018-12-14T23:02:09.047Z,655.17
2018-12-14T23:04:39.695Z,173.70
2018-12-14T23:07:10.348Z,53.57
2018-12-14T23:09:41.007Z,349.37
2018-12-14T23:12:11.870Z,29.57
2018-12-14T23:14:42.536Z,24.00
2018-12-14T23:17:14.675Z,18.47
2018-12-14T23:19:46.032Z,47.67
2018-12-14T23:22:16.700Z,27.57
2018-12-14T23:24:47.384Z,18.67
2018-12-14T23:27:18.224Z,28.27
2018-12-14T23:29:49.043Z,27.83
2018-12-14T23:32:29.934Z,18.53
2018-12-14T23:35:00.679Z,21.10
2018-12-14T23:37:31.395Z,26.00
2018-12-14T23:40:06.754Z,22.50
2018-12-14T23:42:37.396Z,47.73
2018-12-14T23:45:12.612Z,365.60
2018-12-14T23:47:43.396Z,426.90
2018-12-14T23:50:14.048Z,213.30
2018-12-14T23:52:44.753Z,604.60
2018-12-14T23:55:15.436Z,776.83
2018-12-14T23:57:46.136Z,757.60
